Time;durP1;ratioP1;P1;durP2;ratioP2;P2;SDS_P1;SDS_P2;PMS_P1;PMS_P2;Temp;Humidity;BMP_temperature;BMP_pressure;BME280_temperature;BME280_humidity;BME280_pressure;Samples;Min_cycle;Max_cycle;Signal;HPM_P1;HPM_P2
2022/09/20 00:01:21;;;;;;;7.07;1.60;;;13.20;99.90;;;;;;5052653;27;88201;-71
2022/09/20 00:03:51;;;;;;;6.50;1.85;;;13.10;99.90;;;;;;5020945;28;88355;-71
2022/09/20 00:06:21;;;;;;;10.90;2.28;;;13.00;99.90;;;;;;5019101;28;91305;-71
2022/09/20 00:08:48;;;;;;;6.57;1.90;;;12.90;99.90;;;;;;5020358;28;89340;-71
2022/09/20 00:11:21;;;;;;;10.30;2.33;;;12.90;99.90;;;;;;5020642;28;88035;-71
2022/09/20 00:13:51;;;;;;;6.75;1.80;;;12.80;99.90;;;;;;5019292;28;88604;-71
2022/09/20 00:16:21;;;;;;;5.10;1.90;;;12.70;99.90;;;;;;5020032;28;88767;-71
2022/09/20 00:18:50;;;;;;;5.75;2.20;;;12.70;99.90;;;;;;5020460;28;88087;-71
2022/09/20 00:21:19;;;;;;;8.95;2.00;;;12.60;99.90;;;;;;5017665;28;108608;-71
2022/09/20 00:23:47;;;;;;;8.80;2.10;;;12.50;99.90;;;;;;5020202;28;88178;-71
2022/09/20 00:26:14;;;;;;;7.80;1.80;;;12.40;99.90;;;;;;5020287;28;88554;-71
2022/09/20 00:28:42;;;;;;;3.17;1.50;;;12.40;99.90;;;;;;5019171;28;88521;-71
2022/09/20 00:31:10;;;;;;;7.97;2.45;;;12.30;99.90;;;;;;5019167;28;88138;-71
2022/09/20 00:36:24;;;;;;;4.88;1.80;;;12.20;99.90;;;;;;5018526;28;91466;-71
2022/09/20 00:38:55;;;;;;;10.10;2.33;;;12.10;99.90;;;;;;5019220;28;88579;-71
2022/09/20 00:41:23;;;;;;;7.97;1.90;;;12.10;99.90;;;;;;5018487;28;89351;-71
2022/09/20 00:43:51;;;;;;;14.40;2.60;;;12.00;99.90;;;;;;5018322;28;98477;-71
2022/09/20 00:46:32;;;;;;;6.68;2.35;;;12.00;99.90;;;;;;5017956;28;92077;-71
2022/09/20 00:49:15;;;;;;;7.32;2.13;;;12.00;99.90;;;;;;5035084;28;91868;-71
2022/09/20 00:51:46;;;;;;;5.35;1.80;;;11.90;99.90;;;;;;5020362;28;88031;-71
2022/09/20 00:54:17;;;;;;;11.02;2.38;;;11.90;99.90;;;;;;5020051;28;88546;-71
2022/09/20 00:56:47;;;;;;;11.13;2.25;;;11.80;99.90;;;;;;5018790;28;88933;-71
2022/09/20 00:59:20;;;;;;;6.22;1.98;;;11.80;99.90;;;;;;5020059;28;88873;-71
2022/09/20 01:01:56;;;;;;;13.35;2.80;;;11.80;99.90;;;;;;5019909;28;88048;-71
2022/09/20 01:04:26;;;;;;;5.38;1.40;;;11.70;99.90;;;;;;5020263;28;88239;-71
2022/09/20 01:06:58;;;;;;;7.80;2.25;;;11.70;99.90;;;;;;5019599;28;89486;-71
2022/09/20 01:09:25;;;;;;;4.07;1.90;;;11.70;99.90;;;;;;5001116;28;91221;-71
2022/09/20 01:11:54;;;;;;;8.43;1.73;;;11.60;99.90;;;;;;5019109;28;88778;-71
2022/09/20 01:14:23;;;;;;;10.55;1.90;;;11.60;99.90;;;;;;5001243;28;89308;-71
2022/09/20 01:16:54;;;;;;;9.13;1.85;;;11.60;99.90;;;;;;5018787;28;88965;-71
2022/09/20 01:19:36;;;;;;;8.85;2.30;;;11.60;99.90;;;;;;5018333;28;88685;-71
2022/09/20 01:22:10;;;;;;;11.60;1.88;;;11.60;99.90;;;;;;5019795;28;87950;-71
2022/09/20 01:25:02;;;;;;;7.47;1.50;;;11.50;99.90;;;;;;5019239;28;87923;-71
2022/09/20 01:27:47;;;;;;;5.78;1.88;;;11.50;99.90;;;;;;5017661;28;91397;-71
2022/09/20 01:30:20;;;;;;;7.97;1.90;;;11.50;99.90;;;;;;5018693;28;88451;-71
2022/09/20 01:33:11;;;;;;;8.23;1.53;;;11.50;99.90;;;;;;5018401;28;88095;-71
2022/09/20 01:35:40;;;;;;;5.40;1.85;;;11.50;99.90;;;;;;5010400;28;91235;-71
2022/09/20 01:38:35;;;;;;;5.90;1.55;;;11.50;99.90;;;;;;5017290;28;88800;-71
2022/09/20 01:41:27;;;;;;;5.70;1.52;;;11.60;99.90;;;;;;5019349;28;89389;-71
2022/09/20 01:44:16;;;;;;;7.10;1.95;;;11.60;99.90;;;;;;5018157;28;88118;-71
2022/09/20 01:46:49;;;;;;;7.85;2.33;;;11.60;99.90;;;;;;5017620;28;90861;-71
2022/09/20 01:49:25;;;;;;;4.78;1.60;;;11.60;99.90;;;;;;5017905;28;89678;-71
2022/09/20 01:51:57;;;;;;;5.70;2.00;;;11.60;99.90;;;;;;5019322;28;88558;-71
2022/09/20 01:54:36;;;;;;;6.93;1.90;;;11.60;99.90;;;;;;5017779;28;88162;-71
2022/09/20 01:57:15;;;;;;;10.13;1.98;;;11.60;99.90;;;;;;5019351;28;88411;-71
2022/09/20 02:00:07;;;;;;;6.13;1.40;;;11.60;99.90;;;;;;5000740;28;91512;-71
2022/09/20 02:02:48;;;;;;;5.75;1.35;;;11.60;99.90;;;;;;5017491;28;89609;-71
2022/09/20 02:05:55;;;;;;;4.07;1.40;;;11.50;99.90;;;;;;5018794;28;88793;-71
2022/09/20 02:08:46;;;;;;;7.28;1.85;;;11.50;99.90;;;;;;5017525;28;90825;-71
2022/09/20 02:11:16;;;;;;;6.63;1.83;;;11.40;99.90;;;;;;5018807;28;88118;-71
2022/09/20 02:13:57;;;;;;;3.72;1.58;;;11.40;99.90;;;;;;5018398;28;88703;-71
2022/09/20 02:16:43;;;;;;;7.60;1.92;;;11.40;99.90;;;;;;5016719;28;89438;-71
2022/09/20 02:19:45;;;;;;;7.13;1.70;;;11.40;99.90;;;;;;5017189;28;91329;-71
2022/09/20 02:22:40;;;;;;;5.40;1.85;;;11.40;99.90;;;;;;5018541;28;88938;-71
2022/09/20 02:25:19;;;;;;;7.25;1.80;;;11.40;99.90;;;;;;5019150;28;88661;-71
2022/09/20 02:28:04;;;;;;;7.00;1.55;;;11.30;99.90;;;;;;5017502;28;88457;-71
2022/09/20 02:30:40;;;;;;;3.40;1.50;;;11.30;99.90;;;;;;5018540;28;88412;-71
2022/09/20 02:33:31;;;;;;;9.02;2.35;;;11.30;99.90;;;;;;5016621;28;91955;-71
2022/09/20 02:36:20;;;;;;;5.95;1.50;;;11.30;99.90;;;;;;5018700;28;89404;-71
2022/09/20 02:39:09;;;;;;;4.97;1.15;;;11.30;99.90;;;;;;5000174;28;89325;-71
2022/09/20 02:41:46;;;;;;;3.72;1.52;;;11.20;99.90;;;;;;5000052;28;91158;-71
2022/09/20 02:44:35;;;;;;;8.15;1.60;;;11.20;99.90;;;;;;5018450;28;88994;-71
2022/09/20 02:47:26;;;;;;;7.93;1.77;;;11.10;99.90;;;;;;5017204;28;88570;-71
2022/09/20 02:50:03;;;;;;;3.05;1.20;;;11.10;99.90;;;;;;5017038;28;88444;-71
2022/09/20 02:53:08;;;;;;;5.25;1.70;;;11.00;99.90;;;;;;5017025;28;88302;-71
2022/09/20 02:55:53;;;;;;;7.75;1.67;;;11.00;99.90;;;;;;5017906;28;88829;-71
2022/09/20 02:58:38;;;;;;;4.88;1.60;;;10.80;99.90;;;;;;5016828;28;89246;-71
2022/09/20 03:01:08;;;;;;;7.10;1.85;;;10.90;99.90;;;;;;5016091;28;88808;-71
2022/09/20 03:04:06;;;;;;;8.13;2.17;;;10.80;99.90;;;;;;5016846;28;88739;-71
2022/09/20 03:06:55;;;;;;;7.57;1.73;;;10.90;99.90;;;;;;5017945;28;88775;-71
2022/09/20 03:09:46;;;;;;;5.25;2.10;;;10.90;99.90;;;;;;5018092;28;88424;-71
2022/09/20 03:12:33;;;;;;;4.97;1.63;;;10.90;99.90;;;;;;5011745;28;88185;-71
2022/09/20 03:15:34;;;;;;;8.27;1.55;;;11.00;99.90;;;;;;5016495;28;90566;-71
2022/09/20 03:18:14;;;;;;;6.55;1.20;;;11.00;99.90;;;;;;5017654;28;88428;-71
2022/09/20 03:20:44;;;;;;;4.72;1.90;;;11.00;99.90;;;;;;5016445;28;91312;-71
2022/09/20 03:23:31;;;;;;;5.55;1.77;;;10.90;99.90;;;;;;5017687;28;87932;-71
2022/09/20 03:26:01;;;;;;;5.80;1.90;;;10.90;99.90;;;;;;5017710;28;88397;-71
2022/09/20 03:29:02;;;;;;;5.68;1.70;;;10.80;99.90;;;;;;5017204;28;89432;-71
2022/09/20 03:32:21;;;;;;;7.47;1.92;;;10.80;99.90;;;;;;5018855;28;89261;-71
2022/09/20 03:34:57;;;;;;;5.18;1.73;;;10.70;99.90;;;;;;4978754;28;89529;-71
2022/09/20 03:37:29;;;;;;;4.28;1.40;;;10.60;99.90;;;;;;5014928;28;88401;-71
2022/09/20 03:39:58;;;;;;;4.68;1.45;;;10.60;99.90;;;;;;5003033;28;91642;-71
2022/09/20 03:52:27;;;;;;;5.75;1.92;;;10.50;99.90;;;;;;5021723;28;87790;-71
2022/09/20 03:55:37;;;;;;;4.90;1.80;;;10.30;99.90;;;;;;5020501;28;88836;-71
2022/09/20 03:58:09;;;;;;;7.40;1.83;;;10.30;99.90;;;;;;5002931;28;91268;-73
2022/09/20 04:00:39;;;;;;;3.45;1.88;;;10.30;99.90;;;;;;5020155;28;88809;-71
2022/09/20 04:03:24;;;;;;;3.63;1.85;;;10.30;99.90;;;;;;5020598;28;88447;-71
2022/09/20 04:05:57;;;;;;;6.43;1.95;;;10.30;99.90;;;;;;5002709;28;89947;-71
2022/09/20 04:08:30;;;;;;;7.07;1.60;;;10.20;99.90;;;;;;5020546;28;88292;-71
2022/09/20 04:11:04;;;;;;;7.15;1.77;;;10.20;99.90;;;;;;5020836;28;88046;-71
2022/09/20 04:13:43;;;;;;;8.88;2.45;;;10.20;99.90;;;;;;5018978;28;90082;-71
2022/09/20 04:16:41;;;;;;;5.43;1.80;;;10.30;99.90;;;;;;5020423;28;88893;-71
2022/09/20 04:19:26;;;;;;;7.43;1.70;;;10.30;99.90;;;;;;5020905;28;94242;-71
2022/09/20 04:22:00;;;;;;;10.85;2.30;;;10.30;99.90;;;;;;5018996;28;89600;-71
2022/09/20 04:24:55;;;;;;;5.97;1.50;;;10.30;99.90;;;;;;5019052;28;88897;-71
2022/09/20 04:27:30;;;;;;;5.35;1.85;;;10.40;99.90;;;;;;5019697;28;90633;-71
2022/09/20 04:30:17;;;;;;;6.05;1.63;;;10.40;99.90;;;;;;5020277;28;90215;-71
2022/09/20 04:32:59;;;;;;;4.90;1.52;;;10.40;99.90;;;;;;5020787;28;88538;-71
2022/09/20 04:38:18;;;;;;;4.88;1.67;;;10.30;99.90;;;;;;5018861;28;91183;-71
2022/09/20 04:41:04;;;;;;;5.75;2.00;;;10.30;99.90;;;;;;5020089;28;88467;-71
2022/09/20 04:43:40;;;;;;;6.97;1.67;;;10.30;99.90;;;;;;5019540;28;87952;-71
2022/09/20 04:46:34;;;;;;;6.60;1.67;;;10.30;99.90;;;;;;5019292;28;88280;-71
2022/09/20 04:49:07;;;;;;;;;;;10.20;99.90;;;;;;5020603;28;88724;-70
2022/09/20 04:52:02;;;;;;;7.22;1.50;;;10.10;99.90;;;;;;5021138;28;88116;-71
2022/09/20 04:55:05;;;;;;;5.43;1.48;;;10.10;99.90;;;;;;5018538;28;88819;-71
2022/09/20 04:57:53;;;;;;;10.23;1.77;;;10.10;99.90;;;;;;5020176;28;88567;-70
2022/09/20 05:00:23;;;;;;;3.40;1.45;;;10.10;99.90;;;;;;5018693;28;89015;-71
2022/09/20 05:03:09;;;;;;;6.10;2.25;;;10.10;99.90;;;;;;5019693;28;88722;-71
2022/09/20 05:05:36;;;;;;;6.43;1.70;;;10.10;99.90;;;;;;5018617;28;88119;-70
2022/09/20 05:08:22;;;;;;;6.85;2.13;;;10.10;99.90;;;;;;5018726;28;88967;-73
2022/09/20 05:11:16;;;;;;;9.18;2.05;;;10.10;99.90;;;;;;5019873;28;88763;-71
2022/09/20 05:14:01;;;;;;;6.30;1.80;;;10.10;99.90;;;;;;5018341;28;88521;-71
2022/09/20 05:16:52;;;;;;;3.55;2.15;;;10.10;99.90;;;;;;5018194;28;88836;-71
2022/09/20 05:19:38;;;;;;;4.68;2.00;;;10.10;99.90;;;;;;5018182;28;91296;-71
2022/09/20 05:22:16;;;;;;;8.85;2.10;;;10.10;99.90;;;;;;5019276;28;89412;-71
2022/09/20 05:24:45;;;;;;;5.05;1.83;;;10.10;99.90;;;;;;5019377;28;89383;-71
2022/09/20 05:27:28;;;;;;;8.60;2.00;;;10.10;99.90;;;;;;5019509;28;88062;-71
2022/09/20 05:30:00;;;;;;;11.65;2.00;;;10.20;99.90;;;;;;5017933;28;91111;-71
2022/09/20 05:32:45;;;;;;;5.00;1.70;;;10.20;99.90;;;;;;5001307;28;91187;-71
2022/09/20 05:35:23;;;;;;;6.63;1.63;;;10.20;99.90;;;;;;5001359;28;91124;-71
2022/09/20 05:38:09;;;;;;;8.95;1.88;;;10.20;99.90;;;;;;5019282;28;88025;-71
2022/09/20 05:40:44;;;;;;;5.32;2.08;;;10.20;99.90;;;;;;5019197;28;88183;-71
2022/09/20 05:43:19;;;;;;;6.03;2.88;;;10.30;99.90;;;;;;5019454;28;88806;-71
2022/09/20 05:46:13;;;;;;;5.93;1.88;;;10.30;99.90;;;;;;5018855;28;88593;-71
2022/09/20 05:48:53;;;;;;;5.40;2.67;;;10.30;99.90;;;;;;5017196;28;88769;-71
2022/09/20 05:51:19;;;;;;;6.95;1.83;;;10.30;99.90;;;;;;5034662;28;90928;-71
2022/09/20 05:53:55;;;;;;;7.65;2.28;;;10.30;99.90;;;;;;5016516;28;115800;-71
2022/09/20 05:56:22;;;;;;;5.35;1.85;;;10.30;99.90;;;;;;5017792;28;88568;-71
2022/09/20 05:58:58;;;;;;;5.25;2.00;;;10.40;99.90;;;;;;5016559;28;105557;-71
2022/09/20 06:01:28;;;;;;;5.43;2.13;;;10.50;99.90;;;;;;5017378;28;91347;-71
2022/09/20 06:04:20;;;;;;;5.35;2.00;;;10.60;99.90;;;;;;5017679;28;88648;-71
2022/09/20 06:07:11;;;;;;;6.60;2.78;;;10.70;99.90;;;;;;5018993;28;87539;-71
2022/09/20 06:09:56;;;;;;;9.82;2.08;;;10.80;99.90;;;;;;5018591;28;88126;-71
2022/09/20 06:12:51;;;;;;;6.50;1.65;;;11.00;99.90;;;;;;5018643;28;88338;-71
2022/09/20 06:15:33;;;;;;;7.85;1.98;;;11.10;99.90;;;;;;5018194;28;88731;-71
2022/09/20 06:18:33;;;;;;;6.07;1.95;;;11.20;99.90;;;;;;5018494;28;89123;-71
2022/09/20 06:21:08;;;;;;;11.25;2.05;;;11.50;99.90;;;;;;4995348;28;88014;-71
2022/09/20 06:23:36;;;;;;;3.95;1.48;;;11.70;99.90;;;;;;5016621;28;91159;-71
2022/09/20 06:26:26;;;;;;;4.82;1.77;;;11.90;99.90;;;;;;5017136;28;89919;-71
2022/09/20 06:28:58;;;;;;;2.35;1.40;;;12.30;99.90;;;;;;5018106;28;88020;-71
2022/09/20 06:31:26;;;;;;;3.72;1.40;;;12.50;99.90;;;;;;5018785;28;87931;-71
2022/09/20 06:34:02;;;;;;;6.32;1.50;;;12.70;99.90;;;;;;5017281;28;88570;-71
2022/09/20 06:42:25;;;;;;;5.47;1.88;;;13.50;99.90;;;;;;5017950;28;88692;-71
2022/09/20 06:44:53;;;;;;;5.20;1.52;;;13.60;99.90;;;;;;5018056;28;88272;-71
2022/09/20 06:47:21;;;;;;;4.22;1.67;;;13.80;99.90;;;;;;5016908;28;88670;-71
2022/09/20 06:49:49;;;;;;;4.25;2.05;;;13.90;99.90;;;;;;5017844;28;88677;-71
2022/09/20 06:52:18;;;;;;;5.43;1.83;;;13.90;99.90;;;;;;5016547;28;97184;-71
2022/09/20 06:54:47;;;;;;;8.98;1.65;;;14.00;99.90;;;;;;4999651;28;91120;-71
2022/09/20 06:57:17;;;;;;;5.15;1.40;;;14.00;99.90;;;;;;5050310;27;88724;-71
2022/09/20 06:59:44;;;;;;;4.28;1.50;;;13.90;99.90;;;;;;5018321;28;88617;-71
2022/09/20 07:02:11;;;;;;;7.80;1.45;;;13.90;99.90;;;;;;5017730;28;88110;-71
2022/09/20 07:04:38;;;;;;;3.92;1.35;;;13.90;99.90;;;;;;5016710;28;88212;-71
2022/09/20 07:07:07;;;;;;;3.85;1.30;;;13.90;99.90;;;;;;5015731;28;92021;-71
2022/09/20 07:09:35;;;;;;;4.15;2.50;;;13.80;99.90;;;;;;5017784;28;89358;-71
2022/09/20 07:12:02;;;;;;;6.80;2.55;;;13.80;99.90;;;;;;5016319;28;88090;-71
2022/09/20 07:14:29;;;;;;;4.38;1.38;;;13.80;99.90;;;;;;5017889;28;88404;-71
2022/09/20 07:16:56;;;;;;;4.63;1.02;;;13.80;99.90;;;;;;5032028;28;90450;-71
2022/09/20 07:19:24;;;;;;;4.68;2.05;;;13.80;99.90;;;;;;5017491;28;88048;-71
2022/09/20 07:21:52;;;;;;;4.07;1.55;;;13.80;99.90;;;;;;5017598;28;88650;-71
2022/09/20 07:24:19;;;;;;;6.15;1.40;;;13.80;99.90;;;;;;5018038;28;88467;-71
2022/09/20 07:27:00;;;;;;;6.32;1.85;;;13.70;99.90;;;;;;5016013;28;91297;-71
2022/09/20 07:29:28;;;;;;;5.82;2.63;;;13.90;99.90;;;;;;5017772;28;88708;-71
2022/09/20 07:31:55;;;;;;;6.15;2.22;;;13.90;99.90;;;;;;5016856;28;100123;-71
2022/09/20 07:34:22;;;;;;;3.38;1.67;;;14.10;99.90;;;;;;5017765;28;88295;-71
2022/09/20 07:36:50;;;;;;;7.00;1.52;;;14.30;99.90;;;;;;5015873;28;91502;-71
2022/09/20 07:39:17;;;;;;;6.13;1.50;;;14.50;99.90;;;;;;4999910;28;88427;-71
2022/09/20 07:41:47;;;;;;;5.35;1.48;;;14.70;99.90;;;;;;5016270;28;87964;-71
2022/09/20 07:44:20;;;;;;;8.45;1.30;;;14.80;99.90;;;;;;5017268;28;88438;-71
2022/09/20 07:46:51;;;;;;;4.40;1.38;;;14.90;99.90;;;;;;5015975;28;91110;-71
2022/09/20 07:49:20;;;;;;;3.55;1.15;;;15.00;99.90;;;;;;5017949;28;88410;-71
2022/09/20 07:51:48;;;;;;;5.63;1.42;;;15.00;99.90;;;;;;4999153;28;87988;-71
2022/09/20 07:54:15;;;;;;;3.03;1.40;;;15.00;99.90;;;;;;4999129;28;90628;-71
2022/09/20 07:56:42;;;;;;;3.50;1.30;;;15.00;99.90;;;;;;5015553;28;92060;-71
2022/09/20 07:59:10;;;;;;;1.98;1.20;;;15.00;99.90;;;;;;5016606;28;100284;-71
2022/09/20 08:01:38;;;;;;;3.85;1.77;;;15.00;99.90;;;;;;5017214;28;88113;-71
2022/09/20 08:04:06;;;;;;;3.45;1.10;;;15.00;99.90;;;;;;5017247;28;88511;-71
2022/09/20 08:06:36;;;;;;;3.47;1.85;;;15.00;99.90;;;;;;5049030;27;88968;-71
2022/09/20 08:09:04;;;;;;;5.32;1.90;;;15.10;99.90;;;;;;5016851;28;88785;-71
2022/09/20 08:11:37;;;;;;;2.42;1.10;;;15.10;99.90;;;;;;5017416;28;87927;-71
2022/09/20 08:14:04;;;;;;;3.00;1.20;;;15.10;99.90;;;;;;5016152;28;88415;-71
2022/09/20 08:16:39;;;;;;;3.60;1.38;;;15.10;99.90;;;;;;5032092;27;88720;-71
2022/09/20 08:19:07;;;;;;;4.57;2.35;;;15.20;99.90;;;;;;5017639;28;88449;-71
2022/09/20 08:21:37;;;;;;;3.47;1.23;;;15.20;99.90;;;;;;5019108;28;88688;-71
2022/09/20 08:24:04;;;;;;;3.83;1.55;;;15.20;99.90;;;;;;5002369;28;90905;-71
2022/09/20 08:26:31;;;;;;;1.92;0.90;;;15.30;99.90;;;;;;5020449;28;88677;-71
2022/09/20 08:28:59;;;;;;;4.53;2.35;;;15.30;99.90;;;;;;5018922;28;88812;-71
2022/09/20 08:31:35;;;;;;;6.82;1.73;;;15.30;99.90;;;;;;5002564;28;87942;-71
2022/09/20 08:34:05;;;;;;;7.20;1.63;;;15.40;99.90;;;;;;5020135;28;88388;-71
2022/09/20 08:36:33;;;;;;;4.28;1.70;;;15.40;99.90;;;;;;5002199;28;91305;-71
2022/09/20 08:39:03;;;;;;;3.15;2.58;;;15.40;99.90;;;;;;5020510;28;88720;-71
2022/09/20 08:42:26;;;;;;;3.92;1.58;;;15.40;99.90;;;;;;5019824;28;88836;-71
2022/09/20 08:44:57;;;;;;;3.65;1.48;;;15.40;99.90;;;;;;5012461;28;88965;-71
2022/09/20 08:47:29;;;;;;;3.38;2.50;;;15.30;99.90;;;;;;5018580;28;89491;-71
2022/09/20 08:49:57;;;;;;;2.50;1.95;;;15.30;99.90;;;;;;5019780;28;88052;-71
2022/09/20 08:52:29;;;;;;;4.88;2.20;;;15.20;99.90;;;;;;5020064;28;88148;-71
2022/09/20 08:55:03;;;;;;;3.30;1.92;;;15.30;99.90;;;;;;5018173;28;90970;-71
2022/09/20 08:57:34;;;;;;;3.83;1.33;;;15.30;99.90;;;;;;5002476;28;91857;-71
2022/09/20 09:00:04;;;;;;;3.53;1.00;;;15.30;99.90;;;;;;5018968;28;105594;-71
2022/09/20 09:02:33;;;;;;;3.85;1.40;;;15.40;99.90;;;;;;5001965;28;90082;-71
2022/09/20 09:05:01;;;;;;;5.95;1.48;;;15.30;99.90;;;;;;5019867;28;88400;-71
2022/09/20 09:07:29;;;;;;;3.90;1.30;;;15.40;99.90;;;;;;5018230;28;91521;-71
2022/09/20 09:09:56;;;;;;;4.47;1.70;;;15.50;99.90;;;;;;5019826;28;88682;-71
2022/09/20 09:12:27;;;;;;;5.82;2.47;;;15.50;99.90;;;;;;4984676;28;89263;-71
2022/09/20 09:15:02;;;;;;;4.25;1.13;;;15.60;99.90;;;;;;5018629;28;88228;-71
2022/09/20 09:17:30;;;;;;;3.13;2.13;;;15.50;99.90;;;;;;5019369;28;88973;-71
2022/09/20 09:20:15;;;;;;;3.58;1.38;;;15.50;99.90;;;;;;5018406;28;88913;-71
2022/09/20 09:22:44;;;;;;;4.20;1.52;;;15.60;99.90;;;;;;5019572;28;88012;-71
2022/09/20 09:25:17;;;;;;;3.13;1.00;;;15.70;99.90;;;;;;5017700;28;90999;-71
2022/09/20 09:27:56;;;;;;;2.83;1.73;;;15.70;99.90;;;;;;5019702;28;88668;-71
2022/09/20 09:30:26;;;;;;;4.00;2.70;;;15.80;99.90;;;;;;5018323;28;88260;-71
2022/09/20 09:33:16;;;;;;;5.10;2.08;;;15.80;99.90;;;;;;4987482;28;88017;-71
2022/09/20 09:35:51;;;;;;;3.42;0.80;;;16.00;99.90;;;;;;4960153;28;88416;-71
2022/09/20 09:38:22;;;;;;;3.03;1.08;;;16.00;99.90;;;;;;4958239;28;89447;-71
2022/09/20 09:41:01;;;;;;;6.07;2.72;;;16.10;99.90;;;;;;4960314;28;89373;-71
2022/09/20 09:43:31;;;;;;;3.35;0.82;;;16.20;99.90;;;;;;4958351;28;90150;-71
2022/09/20 09:46:20;;;;;;;3.28;1.00;;;16.40;99.90;;;;;;4959684;28;89236;-71
2022/09/20 09:49:03;;;;;;;3.92;1.10;;;16.70;99.90;;;;;;4958875;28;88862;-71
2022/09/20 09:51:31;;;;;;;3.22;1.55;;;16.90;99.80;;;;;;4942343;28;91400;-71
2022/09/20 09:53:59;;;;;;;5.00;1.77;;;17.20;99.00;;;;;;4959771;28;88536;-71
2022/09/20 09:56:41;;;;;;;5.18;1.23;;;17.30;98.10;;;;;;4958616;28;88376;-71
2022/09/20 09:59:28;;;;;;;2.92;0.90;;;17.40;97.80;;;;;;4959550;28;88757;-71
2022/09/20 10:02:20;;;;;;;4.43;0.98;;;17.60;97.90;;;;;;4937667;28;91146;-71
2022/09/20 10:05:21;;;;;;;2.97;1.45;;;17.40;97.80;;;;;;4959196;28;88755;-71
2022/09/20 10:08:00;;;;;;;2.65;1.33;;;17.30;97.70;;;;;;4959386;28;88495;-71
2022/09/20 10:11:09;;;;;;;2.20;1.05;;;17.10;98.50;;;;;;4941424;28;91536;-71
2022/09/20 10:13:55;;;;;;;3.70;1.65;;;17.00;99.90;;;;;;4949865;28;88516;-71
2022/09/20 10:16:50;;;;;;;3.97;2.30;;;16.70;99.90;;;;;;4958676;28;88009;-71
2022/09/20 10:19:39;;;;;;;2.20;1.67;;;16.70;99.90;;;;;;4958912;28;88383;-71
2022/09/20 10:22:18;;;;;;;1.40;0.98;;;16.70;99.90;;;;;;4958316;28;88912;-71
2022/09/20 10:24:55;;;;;;;3.50;1.25;;;16.70;99.90;;;;;;4958453;28;88660;-71
2022/09/20 10:27:48;;;;;;;2.72;1.42;;;16.80;99.90;;;;;;4959298;28;88872;-71
2022/09/20 10:30:20;;;;;;;2.92;1.13;;;17.00;99.90;;;;;;4941291;28;90969;-71
2022/09/20 10:33:26;;;;;;;2.60;1.43;;;17.10;99.90;;;;;;4958858;28;89436;-71
2022/09/20 10:35:59;;;;;;;3.95;2.28;;;17.30;99.90;;;;;;4959206;28;89428;-71
2022/09/20 10:38:31;;;;;;;4.23;1.10;;;17.40;99.30;;;;;;4957407;28;89395;-71
2022/09/20 10:44:47;;;;;;;4.65;2.38;;;17.80;97.60;;;;;;4946813;28;88896;-71
2022/09/20 10:47:19;;;;;;;2.42;1.00;;;17.80;97.30;;;;;;4958651;28;88668;-71
2022/09/20 10:50:13;;;;;;;3.10;2.75;;;18.00;96.60;;;;;;4957578;28;88425;-71
2022/09/20 10:53:24;;;;;;;5.68;1.60;;;18.10;95.90;;;;;;4958033;28;91034;-71
2022/09/20 10:56:07;;;;;;;2.92;1.00;;;18.20;95.40;;;;;;4944309;28;90462;-71
2022/09/20 10:58:51;;;;;;;4.03;2.15;;;18.50;95.40;;;;;;4940893;28;92083;-71
2022/09/20 11:01:28;;;;;;;3.53;1.15;;;18.60;94.30;;;;;;4940597;28;89598;-71
2022/09/20 11:04:26;;;;;;;3.78;2.53;;;18.70;94.30;;;;;;4958626;28;88208;-71
2022/09/20 11:07:18;;;;;;;4.95;1.92;;;18.80;93.50;;;;;;4958617;28;88975;-71
2022/09/20 11:09:56;;;;;;;2.63;1.10;;;18.90;93.70;;;;;;4957385;28;88444;-70
2022/09/20 11:12:41;;;;;;;2.95;1.63;;;18.90;93.10;;;;;;4956849;28;89530;-70
2022/09/20 11:15:39;;;;;;;5.70;1.52;;;19.00;92.20;;;;;;4958673;28;88233;-70
2022/09/20 11:18:11;;;;;;;2.33;1.65;;;19.00;92.30;;;;;;4955680;28;91528;-70
2022/09/20 11:20:46;;;;;;;4.32;1.38;;;18.90;92.00;;;;;;4956913;28;89677;-70
2022/09/20 11:23:32;;;;;;;3.55;0.90;;;18.90;91.10;;;;;;4958313;28;88057;-70
2022/09/20 11:26:13;;;;;;;4.10;1.52;;;18.80;91.00;;;;;;4958387;28;88099;-70
2022/09/20 11:28:40;;;;;;;2.30;1.55;;;18.70;90.90;;;;;;4956271;28;92139;-70
2022/09/20 11:31:31;;;;;;;5.28;0.80;;;18.60;90.60;;;;;;4956810;28;89407;-70
2022/09/20 11:34:11;;;;;;;2.55;1.35;;;18.60;90.20;;;;;;4956497;28;89559;-70
2022/09/20 11:36:53;;;;;;;3.35;1.75;;;18.70;90.20;;;;;;4958069;28;88406;-70
2022/09/20 11:39:29;;;;;;;5.82;1.05;;;18.80;90.10;;;;;;4956516;28;88166;-70
2022/09/20 11:41:59;;;;;;;7.55;1.40;;;18.90;90.60;;;;;;4957076;28;88676;-71
2022/09/20 11:44:26;;;;;;;2.63;1.35;;;19.00;90.60;;;;;;4940089;28;88524;-70
2022/09/20 11:47:03;;;;;;;5.80;1.50;;;19.20;89.90;;;;;;4957235;28;88531;-70
2022/09/20 11:50:01;;;;;;;2.58;1.73;;;19.50;89.00;;;;;;4956458;28;90469;-71
2022/09/20 11:52:52;;;;;;;4.47;1.20;;;19.70;85.80;;;;;;4957029;28;91264;-70
2022/09/20 11:55:57;;;;;;;5.93;1.67;;;19.70;85.00;;;;;;4954388;28;88776;-70
2022/09/20 11:58:26;;;;;;;2.45;1.40;;;19.70;83.70;;;;;;4961185;28;88587;-70
2022/09/20 12:00:57;;;;;;;4.47;1.20;;;19.50;83.70;;;;;;4943555;28;91456;-70
2022/09/20 12:03:52;;;;;;;4.28;2.38;;;19.60;84.70;;;;;;4943687;28;91172;-70
2022/09/20 12:06:37;;;;;;;4.82;2.45;;;19.70;83.00;;;;;;4961126;28;88084;-70
2022/09/20 12:09:22;;;;;;;4.72;1.30;;;19.60;83.70;;;;;;4959812;28;91067;-70
2022/09/20 12:11:51;;;;;;;3.65;1.70;;;19.60;83.60;;;;;;4961276;28;88901;-70
2022/09/20 12:14:26;;;;;;;4.72;2.40;;;19.50;84.50;;;;;;4961258;28;88680;-70
2022/09/20 12:16:55;;;;;;;3.42;1.38;;;19.60;84.30;;;;;;4961065;28;88038;-70
2022/09/20 12:19:31;;;;;;;4.55;1.70;;;19.80;85.00;;;;;;4960997;28;88323;-70
2022/09/20 12:21:58;;;;;;;4.15;1.40;;;20.00;81.30;;;;;;4960735;28;88738;-70
2022/09/20 12:24:40;;;;;;;2.75;1.15;;;19.90;80.70;;;;;;4959259;28;90488;-70
2022/09/20 12:27:19;;;;;;;3.88;2.00;;;20.10;80.10;;;;;;4961165;28;88182;-71
2022/09/20 12:29:46;;;;;;;4.53;1.63;;;19.90;80.70;;;;;;4959089;28;91380;-70
2022/09/20 12:32:44;;;;;;;5.50;2.70;;;19.90;82.80;;;;;;4959386;28;91391;-70
2022/09/20 12:35:37;;;;;;;5.97;1.75;;;20.00;81.20;;;;;;4959397;28;91353;-70
2022/09/20 12:38:20;;;;;;;4.90;1.80;;;20.00;81.70;;;;;;4960542;28;88041;-70
2022/09/20 12:41:09;;;;;;;9.85;2.45;;;19.90;81.60;;;;;;4959457;28;89893;-70
2022/09/20 12:43:48;;;;;;;3.67;2.45;;;19.90;78.80;;;;;;4959141;28;90391;-70
2022/09/20 12:46:24;;;;;;;4.15;1.00;;;19.90;78.40;;;;;;4959058;28;91127;-70
2022/09/20 12:49:08;;;;;;;2.75;1.40;;;19.90;78.30;;;;;;4942597;28;88848;-70
2022/09/20 12:54:22;;;;;;;4.80;1.27;;;20.10;78.90;;;;;;4960501;28;88857;-70
2022/09/20 12:56:48;;;;;;;5.18;1.45;;;20.50;80.10;;;;;;4958799;28;89021;-70
2022/09/20 12:59:29;;;;;;;8.63;3.17;;;20.60;79.00;;;;;;4960489;28;88561;-70
2022/09/20 13:02:35;;;;;;;3.45;1.70;;;20.60;80.20;;;;;;4960769;28;88497;-70
2022/09/20 13:05:02;;;;;;;4.50;1.20;;;20.60;81.00;;;;;;4958121;28;91616;-70
2022/09/20 13:07:39;;;;;;;4.00;2.47;;;20.50;82.20;;;;;;4959208;28;89672;-70
2022/09/20 13:10:33;;;;;;;4.78;1.52;;;20.70;82.20;;;;;;4959136;28;89705;-70
2022/09/20 13:13:12;;;;;;;4.20;0.95;;;20.70;81.70;;;;;;4959093;28;88388;-70
2022/09/20 13:15:40;;;;;;;4.97;1.27;;;20.50;81.00;;;;;;4959594;28;89517;-72
2022/09/20 13:18:14;;;;;;;4.60;2.20;;;20.20;81.80;;;;;;4959697;28;92898;-71
2022/09/20 13:20:42;;;;;;;6.75;1.70;;;19.90;82.60;;;;;;4959898;28;88023;-71
2022/09/20 13:23:18;;;;;;;5.40;2.17;;;19.80;84.80;;;;;;4960023;28;88412;-71
2022/09/20 13:25:47;;;;;;;4.93;2.55;;;19.70;84.90;;;;;;4958369;28;91215;-71
2022/09/20 13:28:19;;;;;;;5.05;1.38;;;19.50;83.50;;;;;;4960037;28;88769;-71
2022/09/20 13:30:47;;;;;;;9.55;2.10;;;19.40;81.90;;;;;;4958547;28;88777;-71
2022/09/20 13:33:24;;;;;;;2.63;0.85;;;19.30;82.10;;;;;;4959028;28;91242;-71
2022/09/20 13:35:57;;;;;;;4.38;1.15;;;19.30;81.10;;;;;;4942242;28;91807;-71
2022/09/20 13:38:28;;;;;;;6.80;2.00;;;19.20;81.40;;;;;;4942371;28;91050;-71
2022/09/20 13:41:05;;;;;;;5.50;1.92;;;19.10;81.50;;;;;;4959581;28;88689;-71
2022/09/20 13:43:37;;;;;;;4.45;1.20;;;19.10;81.80;;;;;;4958811;28;88236;-71
2022/09/20 13:46:11;;;;;;;3.42;1.30;;;19.00;80.60;;;;;;4959021;28;88672;-71
2022/09/20 13:48:39;;;;;;;5.13;1.83;;;19.00;79.30;;;;;;4959569;28;88087;-71
2022/09/20 13:51:27;;;;;;;3.40;1.67;;;19.10;79.20;;;;;;4959742;28;88445;-71
2022/09/20 13:54:16;;;;;;;3.65;1.00;;;19.20;79.30;;;;;;4959506;28;88350;-71
2022/09/20 13:56:43;;;;;;;2.13;0.80;;;19.20;77.50;;;;;;4941888;28;90553;-71
2022/09/20 13:59:18;;;;;;;2.22;1.50;;;19.10;78.60;;;;;;4958386;28;89495;-71
2022/09/20 14:01:53;;;;;;;3.15;2.55;;;19.20;80.20;;;;;;4958254;28;87911;-71
2022/09/20 14:04:24;;;;;;;4.20;1.40;;;19.30;82.30;;;;;;4959759;28;88258;-71
2022/09/20 14:06:55;;;;;;;3.35;1.58;;;19.40;81.00;;;;;;4959104;28;89575;-71
2022/09/20 14:09:34;;;;;;;3.03;1.73;;;19.40;79.80;;;;;;4958529;28;88530;-71